Flight Track Log - Related Links

Times and Time Zones

All times are in EST time to prevent confusion due to time zone crossing. See the N731JP flight status page for this flight to view local times or setup timezone preferences in your user account.


Time Position Orientation Groundspeed Altitude Reporting Facility
EST Latitude Longitude Course Direction KTS MPH feet Rate Location/Type
Sun 04:18:19 PM 41.6311 -83.7256 175° South 188 216 7,500  Level Cleveland Center
Sun 04:19:21 PM 41.5692 -83.7189 175° South 186 214 7,500  Level Cleveland Center
Sun 04:20:23 PM 41.5172 -83.7150 177° South 186 214 7,500  Level Cleveland Center
Sun 04:21:25 PM 41.4644 -83.7103 176° South 190 219 7,500  Level Cleveland Center
Sun 04:22:27 PM 41.4117 -83.7050 176° South 190 219 7,500 145 Level Cleveland Center
Sun 04:23:00 PM 41.5126 -83.6701 175° South  Level Estimated
Sun 04:23:29 PM 41.3611 -83.7017 177° South 184 212 7,800  Level Cleveland Center
Sun 04:24:32 PM 41.3133 -83.6975 176° South 174 200 8,300 576 Climbing Cleveland Center
Sun 04:25:34 PM 41.2558 -83.6925 176° South 173 199 9,000 339 Climbing Cleveland Center
Sun 04:26:36 PM 41.2044 -83.6881 176° South 184 212 9,000  Level Cleveland Center
Sun 04:27:38 PM 41.1503 -83.6811 174° South 194 223 9,000  Level Cleveland Center
Sun 04:28:40 PM 41.0956 -83.6778 177° South 198 228 9,000  Level Cleveland Center
Sun 04:29:44 PM 41.0367 -83.6700 174° South 197 227 9,000  Level Indianapolis Center
Sun 04:30:46 PM 40.9825 -83.6639 175° South 196 226 9,000  Level Indianapolis Center
Sun 04:31:48 PM 40.9272 -83.6597 177° South 197 227 9,000  Level Indianapolis Center
Sun 04:32:50 PM 40.8728 -83.6525 174° South 198 228 9,000  Level Indianapolis Center
Sun 04:33:52 PM 40.8067 -83.6444 175° South 198 228 9,000  Level Indianapolis Center
Sun 04:34:54 PM 40.7522 -83.6361 173° South 198 228 9,000  Level Indianapolis Center
Sun 04:35:56 PM 40.6969 -83.6278 173° South 198 228 9,000  Level Indianapolis Center
Sun 04:36:58 PM 40.6419 -83.6219 175° South 200 230 9,000  Level Indianapolis Center
Sun 04:38:00 PM 40.5869 -83.6147 174° South 199 229 9,000  Level Indianapolis Center
Sun 04:38:02 PM 40.5747 -83.6142 178° South 196 226 9,000  Level Indianapolis Center
Sun 04:39:02 PM 40.5319 -83.6075 173° South 200 230 9,000  Level Indianapolis Center
Sun 04:39:09 PM 40.5144 -83.6064 177° South 201 231 9,000  Level Indianapolis Center
Sun 04:40:10 PM 40.4564 -83.5992 175° South 201 231 9,000  Level Indianapolis Center
Sun 04:41:06 PM 40.4083 -83.5908 172° South 203 234 9,000  Level Indianapolis Center
Sun 04:41:11 PM 40.3981 -83.5919 185° South 204 235 9,000  Level Indianapolis Center
Sun 04:43:10 PM 40.2969 -83.5767 173° South 202 232 9,000  Level Indianapolis Center
Sun 04:43:13 PM 40.2858 -83.5783 187° South 203 234 9,000  Level Indianapolis Center
Sun 04:44:12 PM 40.2414 -83.5692 171° South 201 231 9,000  Level Indianapolis Center
Sun 04:44:13 PM 40.2322 -83.5692 180° South 200 230 9,000  Level Indianapolis Center
Sun 04:45:14 PM 40.1744 -83.5606 174° South 202 232 9,000  Level Indianapolis Center
Sun 04:46:15 PM 40.1158 -83.5550 176° South 201 231 9,000  Level Indianapolis Center
Sun 04:46:16 PM 40.1183 -83.5544 10° North 202 232 9,000  Level Indianapolis Center
Sun 04:47:16 PM 40.0597 -83.5483 175° South 202 232 9,000  Level Indianapolis Center
Sun 04:47:18 PM 40.0622 -83.5486 355° North 202 232 9,000  Level Indianapolis Center
Sun 04:48:17 PM 40.0056 -83.5444 177° South 200 230 9,000  Level Indianapolis Center
Sun 04:48:20 PM 40.0064 -83.5431 52° Northeast 202 232 9,000  Level Indianapolis Center
Sun 04:49:22 PM 39.9517 -83.5378 176° South 200 230 9,000  Level Indianapolis Center
Sun 04:50:19 PM 39.8931 -83.5336 177° South 202 232 9,000  Level Indianapolis Center
Sun 04:50:24 PM 39.8958 -83.5325 17° North 201 231 9,000  Level Indianapolis Center
Sun 04:51:19 PM 39.8328 -83.5261 176° South 202 232 9,000  Level Indianapolis Center
Sun 04:51:27 PM 39.8311 -83.5267 194° South 201 231 9,000  Level Indianapolis Center
Sun 04:52:20 PM 39.7767 -83.5194 174° South 203 234 9,000  Level Indianapolis Center
Sun 04:52:29 PM 39.7767 -83.5208 270° West 200 230 9,000  Level Indianapolis Center
Sun 04:54:28 PM 39.6578 -83.5103 176° South 201 231 9,000  Level Indianapolis Center
Sun 04:54:33 PM 39.6650 -83.5103 360° North 202 232 9,000  Level Indianapolis Center
Sun 04:55:29 PM 39.5997 -83.5033 175° South 205 236 9,000  Level Indianapolis Center
Sun 04:55:34 PM 39.5972 -83.5031 175° South 204 235 9,000  Level Indianapolis Center
Sun 04:56:37 PM 39.5403 -83.4958 174° South 205 236 9,000  Level Indianapolis Center
Sun 04:57:38 PM 39.4844 -83.4883 174° South 204 235 9,000  Level Indianapolis Center
Sun 04:58:41 PM 39.4278 -83.4819 175° South 204 235 9,000  Level Indianapolis Center
Sun 04:59:42 PM 39.3711 -83.4744 174° South 205 236 9,000  Level Indianapolis Center
Sun 05:00:45 PM 39.3044 -83.4561 168° South 206 237 9,000  Level Indianapolis Center
Sun 05:01:47 PM 39.2486 -83.4369 165° South 207 238 9,000  Level Indianapolis Center
Sun 05:02:49 PM 39.1931 -83.4192 166° South 206 237 9,000  Level Indianapolis Center
Sun 05:03:51 PM 39.1367 -83.4056 169° South 206 237 9,000  Level Indianapolis Center
Sun 05:04:53 PM 39.0803 -83.3994 175° South 205 236 9,000  Level Indianapolis Center
Sun 05:05:55 PM 39.0233 -83.3956 177° South 205 236 9,000  Level Indianapolis Center
Sun 05:06:57 PM 38.9550 -83.3903 177° South 205 236 9,000  Level Indianapolis Center
Sun 05:07:59 PM 38.8972 -83.3878 178° South 207 238 9,000  Level Indianapolis Center
Sun 05:09:01 PM 38.8411 -83.3825 176° South 203 234 9,000  Level Indianapolis Center
Sun 05:10:03 PM 38.7844 -83.3772 176° South 205 236 9,000  Level Indianapolis Center
Sun 05:11:05 PM 38.7264 -83.3739 177° South 207 238 9,000  Level Indianapolis Center
Sun 05:12:07 PM 38.6692 -83.3708 178° South 207 238 9,000  Level Indianapolis Center
Sun 05:13:09 PM 38.6067 -83.3672 177° South 206 237 9,000  Level Indianapolis Center
Sun 05:14:11 PM 38.5394 -83.3619 176° South 208 239 9,000  Level Indianapolis Center
Sun 05:15:13 PM 38.4814 -83.3594 178° South 208 239 9,000  Level Indianapolis Center
Sun 05:16:15 PM 38.4242 -83.3544 176° South 207 238 9,000  Level Indianapolis Center
Sun 05:17:17 PM 38.3667 -83.3506 177° South 206 237 9,000  Level Indianapolis Center
Sun 05:18:19 PM 38.3097 -83.3456 176° South 206 237 9,000 -97 Level Indianapolis Center
Sun 05:19:21 PM 38.2508 -83.3422 177° South 210 242 8,800 -339 Descending Indianapolis Center
Sun 05:20:23 PM 38.1803 -83.3364 176° South 216 249 8,300 -484 Descending Indianapolis Center
Sun 05:21:25 PM 38.1189 -83.3333 178° South 220 253 7,800 -537 Descending Indianapolis Center
Sun 05:22:26 PM 38.0589 -83.3292 177° South 217 250 7,200 -488 Descending Indianapolis Center
Sun 05:23:28 PM 38.0006 -83.3261 178° South 212 244 6,800 -387 Descending Indianapolis Center
Sun 05:24:30 PM 37.9442 -83.3242 178° South 207 238 6,400 -484 Descending Indianapolis Center
Sun 05:25:32 PM 37.8881 -83.3197 176° South 203 234 5,800 -581 Descending Indianapolis Center
Sun 05:26:34 PM 37.8242 -83.3139 176° South 200 230 5,200 -532 Descending Indianapolis Center
Sun 05:27:36 PM 37.7703 -83.3081 175° South 197 227 4,700 -484 Descending Indianapolis Center
Sun 05:28:38 PM 37.7183 -83.3033 176° South 192 221 4,200 -484 Descending Indianapolis Center
Sun 05:30:00 PM 37.6544 -83.2894 170° South  Level FlightAware Approximate
Sun 05:37:00 PM 37.3833 -83.2500 North  Level FlightAware Approximate
Sun 05:38:00 PM 37.3874 -83.2616 North  Level Estimated
Sun 05:39:00 PM 37.3874 -83.2616 North  Level Estimated
Sun 05:40:00 PM 37.3874 -83.2616 North  Level Estimated
Sun 05:41:00 PM 37.3874 -83.2616 North  Level Estimated
Sun 05:42:00 PM 37.3874 -83.2616 North  Level Estimated
Sun 05:43:00 PM 37.3874 -83.2616 North  Level Estimated
Sun 05:44:00 PM 37.3874 -83.2616 North  Level Estimated
Sun 05:45:00 PM 37.3874 -83.2616 North  Level Estimated
Sun 05:46:00 PM 37.3874 -83.2616 North  Level Estimated
Sun 05:47:00 PM 37.3874 -83.2616 North  Level Estimated
Sun 05:48:00 PM 37.3874 -83.2616 North  Level Estimated
Sun 05:49:00 PM 37.3874 -83.2616 North  Level Estimated
Sun 05:50:00 PM 37.3874 -83.2616 North  Level Estimated
Sun 05:51:00 PM 37.3874 -83.2616 North  Level Estimated

Login

Don't have an account? Register now (free) for customized features, flight alerts, and more!